sensor_id;sensor_type;location;lat;lon;timestamp;P1;durP1;ratioP1;P2;durP2;ratioP2
41705;SDS011;27385;51.096;17.190;2023-08-20T00:00:47;25.70;;;12.80;;
41705;SDS011;27385;51.096;17.190;2023-08-20T00:03:38;23.60;;;13.20;;
41705;SDS011;27385;51.096;17.190;2023-08-20T00:06:11;22.40;;;12.00;;
41705;SDS011;27385;51.096;17.190;2023-08-20T00:08:43;19.90;;;11.60;;
41705;SDS011;27385;51.096;17.190;2023-08-20T00:11:14;23.10;;;10.70;;
41705;SDS011;27385;51.096;17.190;2023-08-20T00:13:45;18.30;;;9.60;;
41705;SDS011;27385;51.096;17.190;2023-08-20T00:16:16;22.40;;;11.60;;
41705;SDS011;27385;51.096;17.190;2023-08-20T00:18:48;22.80;;;10.40;;
41705;SDS011;27385;51.096;17.190;2023-08-20T00:21:19;20.10;;;11.10;;
41705;SDS011;27385;51.096;17.190;2023-08-20T00:23:52;21.80;;;10.90;;
41705;SDS011;27385;51.096;17.190;2023-08-20T00:26:23;19.70;;;10.50;;
41705;SDS011;27385;51.096;17.190;2023-08-20T00:28:55;18.70;;;9.30;;
41705;SDS011;27385;51.096;17.190;2023-08-20T00:31:26;19.10;;;10.00;;
41705;SDS011;27385;51.096;17.190;2023-08-20T00:33:56;20.10;;;10.60;;
41705;SDS011;27385;51.096;17.190;2023-08-20T00:36:27;17.40;;;9.30;;
41705;SDS011;27385;51.096;17.190;2023-08-20T00:38:58;21.70;;;10.30;;
41705;SDS011;27385;51.096;17.190;2023-08-20T00:41:30;19.70;;;10.00;;
41705;SDS011;27385;51.096;17.190;2023-08-20T00:44:01;21.10;;;8.90;;
41705;SDS011;27385;51.096;17.190;2023-08-20T00:46:32;19.50;;;9.50;;
41705;SDS011;27385;51.096;17.190;2023-08-20T00:49:03;19.80;;;8.90;;
41705;SDS011;27385;51.096;17.190;2023-08-20T00:51:34;19.10;;;10.10;;
41705;SDS011;27385;51.096;17.190;2023-08-20T00:54:06;17.80;;;9.00;;
41705;SDS011;27385;51.096;17.190;2023-08-20T00:56:37;18.40;;;9.80;;
41705;SDS011;27385;51.096;17.190;2023-08-20T00:59:08;18.10;;;9.50;;
41705;SDS011;27385;51.096;17.190;2023-08-20T01:01:39;19.90;;;9.60;;
41705;SDS011;27385;51.096;17.190;2023-08-20T01:04:10;23.00;;;9.70;;
41705;SDS011;27385;51.096;17.190;2023-08-20T01:06:43;20.90;;;9.00;;
41705;SDS011;27385;51.096;17.190;2023-08-20T01:09:19;24.10;;;10.70;;
41705;SDS011;27385;51.096;17.190;2023-08-20T01:11:57;17.80;;;9.60;;
41705;SDS011;27385;51.096;17.190;2023-08-20T01:14:31;18.20;;;10.00;;
41705;SDS011;27385;51.096;17.190;2023-08-20T01:17:02;18.50;;;8.90;;
41705;SDS011;27385;51.096;17.190;2023-08-20T01:19:33;21.30;;;8.90;;
41705;SDS011;27385;51.096;17.190;2023-08-20T01:25:15;17.70;;;8.00;;
41705;SDS011;27385;51.096;17.190;2023-08-20T01:27:57;17.30;;;8.90;;
41705;SDS011;27385;51.096;17.190;2023-08-20T01:30:41;19.90;;;8.80;;
41705;SDS011;27385;51.096;17.190;2023-08-20T01:33:13;19.70;;;9.70;;
41705;SDS011;27385;51.096;17.190;2023-08-20T01:35:45;18.10;;;9.60;;
41705;SDS011;27385;51.096;17.190;2023-08-20T01:38:15;19.00;;;9.40;;
41705;SDS011;27385;51.096;17.190;2023-08-20T01:40:47;18.50;;;9.40;;
41705;SDS011;27385;51.096;17.190;2023-08-20T01:43:18;19.80;;;9.50;;
41705;SDS011;27385;51.096;17.190;2023-08-20T01:45:49;22.40;;;10.40;;
41705;SDS011;27385;51.096;17.190;2023-08-20T01:48:19;17.00;;;8.80;;
41705;SDS011;27385;51.096;17.190;2023-08-20T01:50:50;19.30;;;8.80;;
41705;SDS011;27385;51.096;17.190;2023-08-20T01:53:21;17.40;;;8.80;;
41705;SDS011;27385;51.096;17.190;2023-08-20T01:55:52;19.60;;;9.90;;
41705;SDS011;27385;51.096;17.190;2023-08-20T01:58:23;16.70;;;9.30;;
41705;SDS011;27385;51.096;17.190;2023-08-20T02:00:54;16.90;;;8.60;;
41705;SDS011;27385;51.096;17.190;2023-08-20T02:03:25;16.20;;;9.40;;
41705;SDS011;27385;51.096;17.190;2023-08-20T02:05:56;20.60;;;9.20;;
41705;SDS011;27385;51.096;17.190;2023-08-20T02:08:27;18.40;;;9.40;;
41705;SDS011;27385;51.096;17.190;2023-08-20T02:11:02;20.30;;;10.50;;
41705;SDS011;27385;51.096;17.190;2023-08-20T02:13:33;17.10;;;8.70;;
41705;SDS011;27385;51.096;17.190;2023-08-20T02:16:04;18.60;;;9.20;;
41705;SDS011;27385;51.096;17.190;2023-08-20T02:18:35;19.70;;;8.80;;
41705;SDS011;27385;51.096;17.190;2023-08-20T02:21:06;21.50;;;9.40;;
41705;SDS011;27385;51.096;17.190;2023-08-20T02:23:37;19.40;;;9.20;;
41705;SDS011;27385;51.096;17.190;2023-08-20T02:26:08;17.00;;;8.60;;
41705;SDS011;27385;51.096;17.190;2023-08-20T02:28:39;17.10;;;8.10;;
41705;SDS011;27385;51.096;17.190;2023-08-20T02:31:10;18.20;;;8.00;;
41705;SDS011;27385;51.096;17.190;2023-08-20T02:33:40;15.30;;;8.00;;
41705;SDS011;27385;51.096;17.190;2023-08-20T02:36:11;17.50;;;7.70;;
41705;SDS011;27385;51.096;17.190;2023-08-20T02:38:42;13.80;;;6.50;;
41705;SDS011;27385;51.096;17.190;2023-08-20T02:41:14;15.50;;;6.80;;
41705;SDS011;27385;51.096;17.190;2023-08-20T02:43:45;20.90;;;7.60;;
41705;SDS011;27385;51.096;17.190;2023-08-20T02:46:15;15.90;;;7.70;;
41705;SDS011;27385;51.096;17.190;2023-08-20T02:48:46;14.50;;;6.80;;
41705;SDS011;27385;51.096;17.190;2023-08-20T02:51:17;15.80;;;8.10;;
41705;SDS011;27385;51.096;17.190;2023-08-20T02:53:48;13.70;;;7.40;;
41705;SDS011;27385;51.096;17.190;2023-08-20T02:56:19;15.60;;;7.60;;
41705;SDS011;27385;51.096;17.190;2023-08-20T02:58:50;15.90;;;7.20;;
41705;SDS011;27385;51.096;17.190;2023-08-20T03:01:21;15.10;;;7.30;;
41705;SDS011;27385;51.096;17.190;2023-08-20T03:03:53;16.50;;;7.90;;
41705;SDS011;27385;51.096;17.190;2023-08-20T03:06:24;20.70;;;8.70;;
41705;SDS011;27385;51.096;17.190;2023-08-20T03:08:55;15.40;;;7.50;;
41705;SDS011;27385;51.096;17.190;2023-08-20T03:11:26;16.60;;;7.70;;
41705;SDS011;27385;51.096;17.190;2023-08-20T03:13:56;13.60;;;6.90;;
41705;SDS011;27385;51.096;17.190;2023-08-20T03:16:27;15.90;;;7.60;;
41705;SDS011;27385;51.096;17.190;2023-08-20T03:18:58;19.50;;;8.90;;
41705;SDS011;27385;51.096;17.190;2023-08-20T03:21:30;17.10;;;8.40;;
41705;SDS011;27385;51.096;17.190;2023-08-20T03:24:01;15.60;;;7.50;;
41705;SDS011;27385;51.096;17.190;2023-08-20T03:26:33;17.20;;;7.80;;
41705;SDS011;27385;51.096;17.190;2023-08-20T03:29:04;17.60;;;7.90;;
41705;SDS011;27385;51.096;17.190;2023-08-20T03:31:34;15.70;;;6.90;;
41705;SDS011;27385;51.096;17.190;2023-08-20T03:34:05;15.40;;;7.50;;
41705;SDS011;27385;51.096;17.190;2023-08-20T03:36:37;17.70;;;7.30;;
41705;SDS011;27385;51.096;17.190;2023-08-20T03:39:08;16.70;;;7.80;;
41705;SDS011;27385;51.096;17.190;2023-08-20T03:41:39;17.80;;;8.80;;
41705;SDS011;27385;51.096;17.190;2023-08-20T03:44:09;18.90;;;8.20;;
41705;SDS011;27385;51.096;17.190;2023-08-20T03:46:40;18.80;;;8.50;;
41705;SDS011;27385;51.096;17.190;2023-08-20T03:49:11;19.90;;;8.90;;
41705;SDS011;27385;51.096;17.190;2023-08-20T03:51:42;17.70;;;8.50;;
41705;SDS011;27385;51.096;17.190;2023-08-20T03:54:13;18.10;;;8.90;;
41705;SDS011;27385;51.096;17.190;2023-08-20T03:56:43;20.00;;;8.30;;
41705;SDS011;27385;51.096;17.190;2023-08-20T03:59:14;17.20;;;9.20;;
41705;SDS011;27385;51.096;17.190;2023-08-20T04:01:45;22.90;;;9.60;;
41705;SDS011;27385;51.096;17.190;2023-08-20T04:04:16;20.30;;;9.20;;
41705;SDS011;27385;51.096;17.190;2023-08-20T04:06:48;16.80;;;7.50;;
41705;SDS011;27385;51.096;17.190;2023-08-20T04:09:19;18.60;;;8.70;;
41705;SDS011;27385;51.096;17.190;2023-08-20T04:11:50;17.90;;;8.10;;
41705;SDS011;27385;51.096;17.190;2023-08-20T04:14:21;18.60;;;9.30;;
41705;SDS011;27385;51.096;17.190;2023-08-20T04:16:52;17.60;;;9.40;;
41705;SDS011;27385;51.096;17.190;2023-08-20T04:19:23;18.90;;;9.10;;
41705;SDS011;27385;51.096;17.190;2023-08-20T04:21:54;23.40;;;10.60;;
41705;SDS011;27385;51.096;17.190;2023-08-20T04:24:24;22.20;;;10.70;;
41705;SDS011;27385;51.096;17.190;2023-08-20T04:26:55;20.70;;;10.60;;
41705;SDS011;27385;51.096;17.190;2023-08-20T04:29:26;20.80;;;9.80;;
41705;SDS011;27385;51.096;17.190;2023-08-20T04:31:57;21.90;;;10.80;;
41705;SDS011;27385;51.096;17.190;2023-08-20T04:34:28;20.90;;;10.30;;
41705;SDS011;27385;51.096;17.190;2023-08-20T04:36:59;22.20;;;10.10;;
41705;SDS011;27385;51.096;17.190;2023-08-20T04:39:30;19.20;;;10.10;;
41705;SDS011;27385;51.096;17.190;2023-08-20T04:42:01;20.40;;;9.90;;
41705;SDS011;27385;51.096;17.190;2023-08-20T04:44:32;19.00;;;9.70;;
41705;SDS011;27385;51.096;17.190;2023-08-20T04:47:03;20.60;;;9.50;;
41705;SDS011;27385;51.096;17.190;2023-08-20T04:49:34;18.70;;;9.90;;
41705;SDS011;27385;51.096;17.190;2023-08-20T04:52:05;21.30;;;9.80;;
41705;SDS011;27385;51.096;17.190;2023-08-20T04:54:36;19.10;;;10.60;;
41705;SDS011;27385;51.096;17.190;2023-08-20T04:57:07;17.80;;;9.90;;
41705;SDS011;27385;51.096;17.190;2023-08-20T04:59:38;21.50;;;10.90;;
41705;SDS011;27385;51.096;17.190;2023-08-20T05:02:11;20.00;;;11.00;;
41705;SDS011;27385;51.096;17.190;2023-08-20T05:04:42;20.30;;;11.80;;
41705;SDS011;27385;51.096;17.190;2023-08-20T05:07:13;25.30;;;12.00;;
41705;SDS011;27385;51.096;17.190;2023-08-20T05:09:43;26.20;;;12.40;;
41705;SDS011;27385;51.096;17.190;2023-08-20T05:12:14;25.80;;;11.20;;
41705;SDS011;27385;51.096;17.190;2023-08-20T05:14:45;22.90;;;11.60;;
41705;SDS011;27385;51.096;17.190;2023-08-20T05:17:16;19.30;;;11.00;;
41705;SDS011;27385;51.096;17.190;2023-08-20T05:19:47;21.70;;;10.80;;
41705;SDS011;27385;51.096;17.190;2023-08-20T05:22:18;22.60;;;11.40;;
41705;SDS011;27385;51.096;17.190;2023-08-20T05:24:49;22.40;;;11.70;;
41705;SDS011;27385;51.096;17.190;2023-08-20T05:27:20;24.90;;;13.40;;
41705;SDS011;27385;51.096;17.190;2023-08-20T05:29:50;29.70;;;13.90;;
41705;SDS011;27385;51.096;17.190;2023-08-20T05:32:21;22.60;;;12.70;;
41705;SDS011;27385;51.096;17.190;2023-08-20T05:34:52;27.30;;;13.80;;
41705;SDS011;27385;51.096;17.190;2023-08-20T05:37:23;25.40;;;14.70;;
41705;SDS011;27385;51.096;17.190;2023-08-20T05:39:54;28.70;;;14.80;;
41705;SDS011;27385;51.096;17.190;2023-08-20T05:42:25;25.70;;;14.20;;
41705;SDS011;27385;51.096;17.190;2023-08-20T05:44:56;25.20;;;15.00;;
41705;SDS011;27385;51.096;17.190;2023-08-20T05:47:26;26.00;;;14.20;;
41705;SDS011;27385;51.096;17.190;2023-08-20T05:49:57;23.10;;;12.30;;
41705;SDS011;27385;51.096;17.190;2023-08-20T05:52:28;26.80;;;15.80;;
41705;SDS011;27385;51.096;17.190;2023-08-20T05:54:59;25.40;;;15.70;;
41705;SDS011;27385;51.096;17.190;2023-08-20T05:57:31;30.30;;;15.50;;
41705;SDS011;27385;51.096;17.190;2023-08-20T06:00:05;23.40;;;13.40;;
41705;SDS011;27385;51.096;17.190;2023-08-20T06:02:38;25.30;;;16.10;;
41705;SDS011;27385;51.096;17.190;2023-08-20T06:05:09;28.00;;;15.00;;
41705;SDS011;27385;51.096;17.190;2023-08-20T06:07:40;25.50;;;15.50;;
41705;SDS011;27385;51.096;17.190;2023-08-20T06:10:11;27.50;;;15.70;;
41705;SDS011;27385;51.096;17.190;2023-08-20T06:12:42;25.10;;;14.40;;
41705;SDS011;27385;51.096;17.190;2023-08-20T06:15:13;24.40;;;15.10;;
41705;SDS011;27385;51.096;17.190;2023-08-20T06:17:44;26.60;;;14.00;;
41705;SDS011;27385;51.096;17.190;2023-08-20T06:20:15;27.00;;;16.10;;
41705;SDS011;27385;51.096;17.190;2023-08-20T06:22:46;25.70;;;15.30;;
41705;SDS011;27385;51.096;17.190;2023-08-20T06:25:17;26.00;;;16.10;;
41705;SDS011;27385;51.096;17.190;2023-08-20T06:27:48;27.50;;;16.70;;
41705;SDS011;27385;51.096;17.190;2023-08-20T06:30:19;29.90;;;16.90;;
41705;SDS011;27385;51.096;17.190;2023-08-20T06:32:50;26.60;;;15.40;;
41705;SDS011;27385;51.096;17.190;2023-08-20T06:35:21;24.70;;;15.50;;
41705;SDS011;27385;51.096;17.190;2023-08-20T06:37:52;24.00;;;14.70;;
41705;SDS011;27385;51.096;17.190;2023-08-20T06:40:22;25.80;;;14.70;;
41705;SDS011;27385;51.096;17.190;2023-08-20T06:42:53;25.90;;;15.00;;
41705;SDS011;27385;51.096;17.190;2023-08-20T06:45:24;24.50;;;14.80;;
41705;SDS011;27385;51.096;17.190;2023-08-20T06:47:55;27.00;;;15.10;;
41705;SDS011;27385;51.096;17.190;2023-08-20T06:50:26;22.00;;;13.20;;
41705;SDS011;27385;51.096;17.190;2023-08-20T06:52:57;24.10;;;12.60;;
41705;SDS011;27385;51.096;17.190;2023-08-20T06:55:28;23.20;;;11.40;;
41705;SDS011;27385;51.096;17.190;2023-08-20T06:57:59;22.30;;;12.10;;
41705;SDS011;27385;51.096;17.190;2023-08-20T07:00:30;21.60;;;12.50;;
41705;SDS011;27385;51.096;17.190;2023-08-20T07:03:01;22.10;;;12.20;;
41705;SDS011;27385;51.096;17.190;2023-08-20T07:05:32;20.40;;;11.40;;
41705;SDS011;27385;51.096;17.190;2023-08-20T07:08:03;22.50;;;12.20;;
41705;SDS011;27385;51.096;17.190;2023-08-20T07:10:34;24.20;;;13.00;;
41705;SDS011;27385;51.096;17.190;2023-08-20T07:13:05;21.00;;;11.10;;
41705;SDS011;27385;51.096;17.190;2023-08-20T07:15:36;19.30;;;10.70;;
41705;SDS011;27385;51.096;17.190;2023-08-20T07:18:07;20.20;;;10.40;;
41705;SDS011;27385;51.096;17.190;2023-08-20T07:20:41;18.60;;;8.90;;
41705;SDS011;27385;51.096;17.190;2023-08-20T07:23:12;19.20;;;9.00;;
41705;SDS011;27385;51.096;17.190;2023-08-20T07:25:43;19.10;;;9.80;;
41705;SDS011;27385;51.096;17.190;2023-08-20T07:28:14;18.30;;;9.50;;
41705;SDS011;27385;51.096;17.190;2023-08-20T07:30:54;18.80;;;9.00;;
41705;SDS011;27385;51.096;17.190;2023-08-20T07:33:25;17.90;;;9.00;;
41705;SDS011;27385;51.096;17.190;2023-08-20T07:35:55;19.60;;;8.90;;
41705;SDS011;27385;51.096;17.190;2023-08-20T07:38:26;17.80;;;8.60;;
41705;SDS011;27385;51.096;17.190;2023-08-20T07:40:57;16.70;;;8.40;;
41705;SDS011;27385;51.096;17.190;2023-08-20T07:43:28;15.80;;;8.10;;
41705;SDS011;27385;51.096;17.190;2023-08-20T07:45:59;16.50;;;7.70;;
41705;SDS011;27385;51.096;17.190;2023-08-20T07:48:30;16.60;;;8.10;;
41705;SDS011;27385;51.096;17.190;2023-08-20T07:51:01;15.60;;;6.90;;
41705;SDS011;27385;51.096;17.190;2023-08-20T07:53:35;14.20;;;7.30;;
41705;SDS011;27385;51.096;17.190;2023-08-20T07:56:06;14.10;;;6.50;;
41705;SDS011;27385;51.096;17.190;2023-08-20T07:58:37;17.40;;;7.40;;
41705;SDS011;27385;51.096;17.190;2023-08-20T08:01:08;13.10;;;6.50;;
41705;SDS011;27385;51.096;17.190;2023-08-20T08:03:41;18.20;;;6.90;;
41705;SDS011;27385;51.096;17.190;2023-08-20T08:06:12;14.90;;;7.10;;
41705;SDS011;27385;51.096;17.190;2023-08-20T08:08:43;13.40;;;7.20;;
41705;SDS011;27385;51.096;17.190;2023-08-20T08:11:14;15.00;;;6.40;;
41705;SDS011;27385;51.096;17.190;2023-08-20T08:13:45;10.70;;;5.40;;
41705;SDS011;27385;51.096;17.190;2023-08-20T08:16:16;12.80;;;6.40;;
41705;SDS011;27385;51.096;17.190;2023-08-20T08:18:47;12.70;;;6.70;;
41705;SDS011;27385;51.096;17.190;2023-08-20T08:21:18;13.90;;;6.60;;
41705;SDS011;27385;51.096;17.190;2023-08-20T08:23:48;12.10;;;6.20;;
41705;SDS011;27385;51.096;17.190;2023-08-20T08:26:21;16.30;;;6.50;;
41705;SDS011;27385;51.096;17.190;2023-08-20T08:28:55;16.40;;;6.80;;
41705;SDS011;27385;51.096;17.190;2023-08-20T08:31:26;11.20;;;5.30;;
41705;SDS011;27385;51.096;17.190;2023-08-20T08:33:57;12.10;;;6.30;;
41705;SDS011;27385;51.096;17.190;2023-08-20T08:36:28;12.40;;;6.30;;
41705;SDS011;27385;51.096;17.190;2023-08-20T08:38:59;14.60;;;7.20;;
41705;SDS011;27385;51.096;17.190;2023-08-20T08:41:31;13.40;;;6.40;;
41705;SDS011;27385;51.096;17.190;2023-08-20T08:44:09;13.70;;;5.90;;
41705;SDS011;27385;51.096;17.190;2023-08-20T08:46:44;12.70;;;6.10;;
41705;SDS011;27385;51.096;17.190;2023-08-20T08:49:18;12.20;;;5.90;;
41705;SDS011;27385;51.096;17.190;2023-08-20T08:51:49;12.60;;;5.50;;
41705;SDS011;27385;51.096;17.190;2023-08-20T08:54:22;12.50;;;5.80;;
41705;SDS011;27385;51.096;17.190;2023-08-20T08:56:53;13.20;;;5.50;;
41705;SDS011;27385;51.096;17.190;2023-08-20T08:59:26;13.70;;;5.60;;
41705;SDS011;27385;51.096;17.190;2023-08-20T09:01:58;10.50;;;5.40;;
41705;SDS011;27385;51.096;17.190;2023-08-20T09:04:32;10.80;;;5.30;;
41705;SDS011;27385;51.096;17.190;2023-08-20T09:07:04;14.20;;;6.00;;
41705;SDS011;27385;51.096;17.190;2023-08-20T09:09:41;14.00;;;5.60;;
41705;SDS011;27385;51.096;17.190;2023-08-20T09:12:16;12.00;;;5.60;;
41705;SDS011;27385;51.096;17.190;2023-08-20T09:14:50;11.50;;;5.00;;
41705;SDS011;27385;51.096;17.190;2023-08-20T09:17:24;11.40;;;5.20;;
41705;SDS011;27385;51.096;17.190;2023-08-20T09:19:56;10.40;;;5.10;;
41705;SDS011;27385;51.096;17.190;2023-08-20T09:22:31;10.50;;;5.10;;
41705;SDS011;27385;51.096;17.190;2023-08-20T09:25:04;14.00;;;6.20;;
41705;SDS011;27385;51.096;17.190;2023-08-20T09:27:39;12.90;;;5.70;;
41705;SDS011;27385;51.096;17.190;2023-08-20T09:30:12;13.90;;;5.00;;
41705;SDS011;27385;51.096;17.190;2023-08-20T09:35:36;13.90;;;5.70;;
41705;SDS011;27385;51.096;17.190;2023-08-20T09:38:10;11.10;;;5.50;;
41705;SDS011;27385;51.096;17.190;2023-08-20T09:40:41;14.60;;;6.10;;
41705;SDS011;27385;51.096;17.190;2023-08-20T09:43:12;13.70;;;5.70;;
41705;SDS011;27385;51.096;17.190;2023-08-20T09:45:45;11.40;;;5.60;;
41705;SDS011;27385;51.096;17.190;2023-08-20T09:48:18;12.30;;;5.50;;
41705;SDS011;27385;51.096;17.190;2023-08-20T09:50:51;11.00;;;5.00;;
41705;SDS011;27385;51.096;17.190;2023-08-20T09:53:27;12.90;;;4.80;;
41705;SDS011;27385;51.096;17.190;2023-08-20T09:56:03;11.50;;;5.60;;
41705;SDS011;27385;51.096;17.190;2023-08-20T09:58:44;10.00;;;4.50;;
41705;SDS011;27385;51.096;17.190;2023-08-20T10:01:17;10.80;;;4.40;;
41705;SDS011;27385;51.096;17.190;2023-08-20T10:03:49;9.70;;;5.00;;
41705;SDS011;27385;51.096;17.190;2023-08-20T10:06:20;13.50;;;5.40;;
41705;SDS011;27385;51.096;17.190;2023-08-20T10:08:52;13.40;;;5.60;;
41705;SDS011;27385;51.096;17.190;2023-08-20T10:11:25;11.40;;;4.50;;
41705;SDS011;27385;51.096;17.190;2023-08-20T10:13:57;11.50;;;4.30;;
41705;SDS011;27385;51.096;17.190;2023-08-20T10:16:29;11.20;;;4.60;;
41705;SDS011;27385;51.096;17.190;2023-08-20T10:19:03;9.60;;;4.30;;
41705;SDS011;27385;51.096;17.190;2023-08-20T10:21:36;11.40;;;4.60;;
41705;SDS011;27385;51.096;17.190;2023-08-20T10:24:17;12.40;;;5.40;;
41705;SDS011;27385;51.096;17.190;2023-08-20T10:29:40;11.30;;;4.80;;
41705;SDS011;27385;51.096;17.190;2023-08-20T10:32:16;10.20;;;4.50;;
41705;SDS011;27385;51.096;17.190;2023-08-20T10:34:50;12.30;;;4.80;;
41705;SDS011;27385;51.096;17.190;2023-08-20T10:37:29;13.30;;;4.70;;
41705;SDS011;27385;51.096;17.190;2023-08-20T10:40:01;8.40;;;4.00;;
41705;SDS011;27385;51.096;17.190;2023-08-20T10:42:40;9.30;;;4.50;;
41705;SDS011;27385;51.096;17.190;2023-08-20T10:45:12;8.70;;;4.20;;
41705;SDS011;27385;51.096;17.190;2023-08-20T10:47:44;12.30;;;4.90;;
41705;SDS011;27385;51.096;17.190;2023-08-20T10:50:16;13.20;;;4.70;;
41705;SDS011;27385;51.096;17.190;2023-08-20T10:52:50;11.90;;;4.20;;
41705;SDS011;27385;51.096;17.190;2023-08-20T10:55:26;12.20;;;5.30;;
41705;SDS011;27385;51.096;17.190;2023-08-20T10:57:58;9.70;;;5.00;;
41705;SDS011;27385;51.096;17.190;2023-08-20T11:00:36;12.10;;;4.60;;
41705;SDS011;27385;51.096;17.190;2023-08-20T11:03:12;13.60;;;4.90;;
41705;SDS011;27385;51.096;17.190;2023-08-20T11:05:48;8.60;;;4.00;;
41705;SDS011;27385;51.096;17.190;2023-08-20T11:08:21;9.50;;;4.40;;
41705;SDS011;27385;51.096;17.190;2023-08-20T11:10:53;13.20;;;4.70;;
41705;SDS011;27385;51.096;17.190;2023-08-20T11:13:26;12.60;;;4.90;;
41705;SDS011;27385;51.096;17.190;2023-08-20T11:16:01;9.80;;;5.10;;
41705;SDS011;27385;51.096;17.190;2023-08-20T11:18:33;11.20;;;4.20;;
41705;SDS011;27385;51.096;17.190;2023-08-20T11:21:05;11.60;;;4.80;;
41705;SDS011;27385;51.096;17.190;2023-08-20T11:23:36;11.60;;;4.70;;
41705;SDS011;27385;51.096;17.190;2023-08-20T11:26:09;10.80;;;4.70;;
41705;SDS011;27385;51.096;17.190;2023-08-20T11:28:44;11.70;;;5.00;;
41705;SDS011;27385;51.096;17.190;2023-08-20T11:31:16;8.70;;;3.60;;
41705;SDS011;27385;51.096;17.190;2023-08-20T11:33:48;11.70;;;4.90;;
41705;SDS011;27385;51.096;17.190;2023-08-20T11:36:20;10.50;;;4.50;;
41705;SDS011;27385;51.096;17.190;2023-08-20T11:38:54;10.60;;;3.50;;
41705;SDS011;27385;51.096;17.190;2023-08-20T11:41:25;17.20;;;4.60;;
41705;SDS011;27385;51.096;17.190;2023-08-20T11:43:56;11.00;;;4.20;;
41705;SDS011;27385;51.096;17.190;2023-08-20T11:46:29;9.90;;;4.80;;
41705;SDS011;27385;51.096;17.190;2023-08-20T11:49:00;9.90;;;4.60;;
41705;SDS011;27385;51.096;17.190;2023-08-20T11:51:36;10.10;;;4.00;;
41705;SDS011;27385;51.096;17.190;2023-08-20T11:54:09;8.10;;;3.80;;
41705;SDS011;27385;51.096;17.190;2023-08-20T11:56:44;10.70;;;3.90;;
41705;SDS011;27385;51.096;17.190;2023-08-20T11:59:17;11.20;;;3.70;;
41705;SDS011;27385;51.096;17.190;2023-08-20T12:01:51;10.60;;;4.60;;
41705;SDS011;27385;51.096;17.190;2023-08-20T12:04:24;10.00;;;3.60;;
41705;SDS011;27385;51.096;17.190;2023-08-20T12:07:03;13.30;;;5.00;;
41705;SDS011;27385;51.096;17.190;2023-08-20T12:09:38;10.50;;;4.50;;
41705;SDS011;27385;51.096;17.190;2023-08-20T12:12:09;11.60;;;4.30;;
41705;SDS011;27385;51.096;17.190;2023-08-20T12:14:40;9.00;;;3.70;;
41705;SDS011;27385;51.096;17.190;2023-08-20T12:17:11;11.30;;;4.20;;
41705;SDS011;27385;51.096;17.190;2023-08-20T12:19:45;9.70;;;3.70;;
41705;SDS011;27385;51.096;17.190;2023-08-20T12:22:17;10.30;;;4.00;;
41705;SDS011;27385;51.096;17.190;2023-08-20T12:24:48;11.20;;;4.30;;
41705;SDS011;27385;51.096;17.190;2023-08-20T12:27:21;10.50;;;4.70;;
41705;SDS011;27385;51.096;17.190;2023-08-20T12:29:52;12.90;;;4.30;;
41705;SDS011;27385;51.096;17.190;2023-08-20T12:32:22;14.10;;;4.40;;
41705;SDS011;27385;51.096;17.190;2023-08-20T12:34:53;10.10;;;4.60;;
41705;SDS011;27385;51.096;17.190;2023-08-20T12:37:24;10.10;;;4.50;;
41705;SDS011;27385;51.096;17.190;2023-08-20T12:39:56;10.40;;;4.40;;
41705;SDS011;27385;51.096;17.190;2023-08-20T12:42:26;13.60;;;5.00;;
41705;SDS011;27385;51.096;17.190;2023-08-20T12:44:58;10.10;;;5.10;;
41705;SDS011;27385;51.096;17.190;2023-08-20T12:47:29;10.00;;;4.70;;
41705;SDS011;27385;51.096;17.190;2023-08-20T12:50:00;13.30;;;4.00;;
41705;SDS011;27385;51.096;17.190;2023-08-20T12:52:32;10.40;;;4.60;;
41705;SDS011;27385;51.096;17.190;2023-08-20T12:55:04;11.20;;;4.30;;
41705;SDS011;27385;51.096;17.190;2023-08-20T12:57:35;8.90;;;4.20;;
41705;SDS011;27385;51.096;17.190;2023-08-20T13:00:20;11.90;;;4.90;;
41705;SDS011;27385;51.096;17.190;2023-08-20T13:02:53;9.60;;;4.70;;
41705;SDS011;27385;51.096;17.190;2023-08-20T13:05:25;12.10;;;4.30;;
41705;SDS011;27385;51.096;17.190;2023-08-20T13:07:57;9.10;;;3.80;;
41705;SDS011;27385;51.096;17.190;2023-08-20T13:10:29;9.00;;;4.20;;
41705;SDS011;27385;51.096;17.190;2023-08-20T13:13:02;13.80;;;4.80;;
41705;SDS011;27385;51.096;17.190;2023-08-20T13:15:35;8.40;;;3.70;;
41705;SDS011;27385;51.096;17.190;2023-08-20T13:18:09;10.90;;;3.80;;
41705;SDS011;27385;51.096;17.190;2023-08-20T13:20:41;9.90;;;3.90;;
41705;SDS011;27385;51.096;17.190;2023-08-20T13:23:12;8.70;;;3.90;;
41705;SDS011;27385;51.096;17.190;2023-08-20T13:25:47;9.10;;;3.40;;
41705;SDS011;27385;51.096;17.190;2023-08-20T13:28:24;7.70;;;3.20;;
41705;SDS011;27385;51.096;17.190;2023-08-20T13:30:55;9.00;;;3.40;;
41705;SDS011;27385;51.096;17.190;2023-08-20T13:33:26;8.80;;;3.60;;
41705;SDS011;27385;51.096;17.190;2023-08-20T13:35:57;9.20;;;3.80;;
41705;SDS011;27385;51.096;17.190;2023-08-20T13:38:28;9.70;;;4.10;;
41705;SDS011;27385;51.096;17.190;2023-08-20T13:41:00;8.50;;;3.40;;
41705;SDS011;27385;51.096;17.190;2023-08-20T13:43:33;8.50;;;3.50;;
41705;SDS011;27385;51.096;17.190;2023-08-20T13:46:04;7.50;;;3.20;;
41705;SDS011;27385;51.096;17.190;2023-08-20T13:48:35;9.50;;;4.30;;
41705;SDS011;27385;51.096;17.190;2023-08-20T13:51:06;11.20;;;3.90;;
41705;SDS011;27385;51.096;17.190;2023-08-20T13:53:41;8.70;;;3.40;;
41705;SDS011;27385;51.096;17.190;2023-08-20T13:56:35;8.10;;;4.00;;
41705;SDS011;27385;51.096;17.190;2023-08-20T13:59:06;8.30;;;3.80;;
41705;SDS011;27385;51.096;17.190;2023-08-20T14:01:38;7.70;;;3.60;;
41705;SDS011;27385;51.096;17.190;2023-08-20T14:04:09;8.40;;;4.00;;
41705;SDS011;27385;51.096;17.190;2023-08-20T14:06:40;8.80;;;3.10;;
41705;SDS011;27385;51.096;17.190;2023-08-20T14:09:11;7.30;;;3.00;;
41705;SDS011;27385;51.096;17.190;2023-08-20T14:11:45;8.20;;;2.90;;
41705;SDS011;27385;51.096;17.190;2023-08-20T14:14:16;7.70;;;3.40;;
41705;SDS011;27385;51.096;17.190;2023-08-20T14:16:47;5.90;;;2.20;;
41705;SDS011;27385;51.096;17.190;2023-08-20T14:19:18;9.00;;;3.40;;
41705;SDS011;27385;51.096;17.190;2023-08-20T14:21:50;6.50;;;2.60;;
41705;SDS011;27385;51.096;17.190;2023-08-20T14:24:21;7.90;;;3.20;;
41705;SDS011;27385;51.096;17.190;2023-08-20T14:26:52;7.70;;;3.10;;
41705;SDS011;27385;51.096;17.190;2023-08-20T14:29:23;8.70;;;2.80;;
41705;SDS011;27385;51.096;17.190;2023-08-20T14:31:54;8.80;;;2.90;;
41705;SDS011;27385;51.096;17.190;2023-08-20T14:34:25;9.60;;;2.60;;
41705;SDS011;27385;51.096;17.190;2023-08-20T14:36:56;7.70;;;2.90;;
41705;SDS011;27385;51.096;17.190;2023-08-20T14:39:26;7.20;;;2.50;;
41705;SDS011;27385;51.096;17.190;2023-08-20T14:41:59;7.60;;;2.20;;
41705;SDS011;27385;51.096;17.190;2023-08-20T14:44:30;6.10;;;2.40;;
41705;SDS011;27385;51.096;17.190;2023-08-20T14:47:01;6.70;;;2.20;;
41705;SDS011;27385;51.096;17.190;2023-08-20T14:49:32;7.70;;;2.70;;
41705;SDS011;27385;51.096;17.190;2023-08-20T14:52:03;9.60;;;2.70;;
41705;SDS011;27385;51.096;17.190;2023-08-20T14:54:34;6.20;;;2.60;;
41705;SDS011;27385;51.096;17.190;2023-08-20T14:57:05;8.00;;;3.70;;